createdAt,value
2019-03-11T00:00:42.598Z,60.72
2019-03-11T00:03:13.228Z,61.27
2019-03-11T00:05:43.756Z,61.34
2019-03-11T00:08:14.203Z,60.55
2019-03-11T00:10:45.326Z,60.09
2019-03-11T00:13:16.361Z,60.42
2019-03-11T00:15:46.989Z,59.98
2019-03-11T00:18:18.032Z,59.76
2019-03-11T00:20:48.664Z,59.00
2019-03-11T00:23:19.248Z,59.21
2019-03-11T00:25:49.482Z,59.10
2019-03-11T00:28:20.761Z,59.39
2019-03-11T00:30:51.588Z,58.54
2019-03-11T00:33:22.628Z,58.79
2019-03-11T00:35:53.157Z,58.92
2019-03-11T00:38:23.682Z,59.30
2019-03-11T00:40:54.112Z,59.21
2019-03-11T00:43:24.637Z,59.19
2019-03-11T00:45:55.155Z,59.09
2019-03-11T00:48:26.850Z,58.52
2019-03-11T00:50:57.145Z,58.31
2019-03-11T00:53:27.573Z,58.17
2019-03-11T00:55:57.887Z,57.33
2019-03-11T00:58:28.454Z,56.49
2019-03-11T01:00:59.518Z,56.88
2019-03-11T01:03:30.910Z,57.12
2019-03-11T01:06:01.130Z,57.47
2019-03-11T01:08:31.660Z,57.69
2019-03-11T01:11:02.290Z,57.17
2019-03-11T01:13:33.647Z,56.66
2019-03-11T01:16:05.093Z,56.38
2019-03-11T01:18:35.818Z,56.38
2019-03-11T01:21:07.802Z,56.46
2019-03-11T01:23:39.431Z,56.37
2019-03-11T01:26:09.958Z,56.43
2019-03-11T01:28:40.482Z,56.63
2019-03-11T01:31:11.835Z,56.39
2019-03-11T01:33:42.152Z,56.58
2019-03-11T01:36:13.298Z,56.70
2019-03-11T01:38:44.848Z,56.98
2019-03-11T01:41:15.483Z,57.90
2019-03-11T01:43:47.339Z,58.25
2019-03-11T01:46:18.276Z,58.33
2019-03-11T01:48:51.245Z,57.97
2019-03-11T01:51:21.435Z,58.15
2019-03-11T01:53:52.142Z,58.06
2019-03-11T01:56:22.642Z,58.50
2019-03-11T01:58:55.115Z,59.32
2019-03-11T02:01:26.083Z,59.07
2019-03-11T02:03:57.290Z,58.45
2019-03-11T02:06:29.561Z,58.46
2019-03-11T02:09:01.531Z,58.28
2019-03-11T02:11:31.842Z,58.46
2019-03-11T02:14:02.883Z,59.12
2019-03-11T02:16:33.514Z,59.92
2019-03-11T02:19:05.480Z,60.31
2019-03-11T02:21:36.113Z,60.09
2019-03-11T02:24:06.637Z,59.98
2019-03-11T02:26:37.261Z,59.98
2019-03-11T02:29:08.106Z,59.83
2019-03-11T02:31:38.621Z,59.61
2019-03-11T02:34:11.506Z,59.13
2019-03-11T02:36:42.166Z,58.85
2019-03-11T02:39:12.658Z,58.29
2019-03-11T02:41:43.190Z,58.14
2019-03-11T02:44:13.723Z,57.94
2019-03-11T02:46:44.255Z,57.44
2019-03-11T02:49:14.471Z,56.79
2019-03-11T02:51:44.983Z,56.66
2019-03-11T02:54:15.972Z,56.70
2019-03-11T02:56:47.251Z,56.23
2019-03-11T02:59:18.726Z,55.26
2019-03-11T03:01:50.388Z,55.19
2019-03-11T03:04:22.959Z,55.79
2019-03-11T03:06:53.590Z,55.69
2019-03-11T03:09:24.114Z,55.80
2019-03-11T03:11:55.325Z,55.65
2019-03-11T03:14:27.428Z,55.91
2019-03-11T03:16:58.050Z,55.76
2019-03-11T03:19:29.235Z,55.57
2019-03-11T03:22:00.242Z,55.50
2019-03-11T03:24:30.468Z,55.47
2019-03-11T03:27:01.995Z,56.58
2019-03-11T03:29:33.254Z,56.59
2019-03-11T03:32:03.962Z,57.74
2019-03-11T03:34:35.732Z,57.66
2019-03-11T03:37:06.377Z,57.93
2019-03-11T03:39:36.914Z,57.63
2019-03-11T03:42:08.038Z,56.99
2019-03-11T03:44:38.224Z,57.68
2019-03-11T03:47:08.685Z,57.37
2019-03-11T03:49:39.316Z,57.39
2019-03-11T03:52:09.847Z,57.22
2019-03-11T03:54:41.040Z,57.38
2019-03-11T03:57:13.560Z,57.59
2019-03-11T03:59:44.499Z,57.48
2019-03-11T04:02:15.494Z,57.48
2019-03-11T04:04:45.765Z,57.70
2019-03-11T04:07:18.639Z,57.39
2019-03-11T04:09:49.073Z,57.30
2019-03-11T04:12:21.026Z,56.95
2019-03-11T04:14:51.880Z,56.79
2019-03-11T04:17:22.697Z,56.66
2019-03-11T04:19:53.944Z,56.88
2019-03-11T04:22:24.145Z,56.76
2019-03-11T04:24:54.793Z,56.57
2019-03-11T04:27:25.325Z,56.52
2019-03-11T04:29:56.457Z,56.25
2019-03-11T04:32:27.091Z,56.08
2019-03-11T04:34:57.717Z,55.89
2019-03-11T04:37:28.656Z,55.81
2019-03-11T04:40:00.440Z,56.02
2019-03-11T04:42:32.068Z,55.50
2019-03-11T04:45:03.107Z,55.06
2019-03-11T04:47:33.591Z,54.42
2019-03-11T04:50:06.354Z,54.36
2019-03-11T04:52:36.488Z,54.76
2019-03-11T04:55:10.017Z,55.46
2019-03-11T04:57:42.406Z,56.51
2019-03-11T05:00:21.477Z,57.17
2019-03-11T05:02:53.872Z,57.58
2019-03-11T05:05:25.253Z,58.08
2019-03-11T05:07:56.597Z,58.37
2019-03-11T05:10:27.277Z,58.66
2019-03-11T05:12:58.057Z,58.60
2019-03-11T05:15:28.994Z,58.34
2019-03-11T05:17:59.626Z,57.91
2019-03-11T05:20:31.078Z,58.17
2019-03-11T05:23:01.299Z,58.38
2019-03-11T05:25:31.823Z,58.60
2019-03-11T05:28:04.398Z,58.47
2019-03-11T05:30:35.209Z,58.18
2019-03-11T05:33:05.871Z,58.63
2019-03-11T05:35:36.390Z,58.33
2019-03-11T05:38:07.644Z,58.46
2019-03-11T05:40:39.612Z,58.80
2019-03-11T05:43:12.429Z,58.92
2019-03-11T05:45:42.939Z,59.05
2019-03-11T05:48:15.684Z,58.82
2019-03-11T05:50:46.725Z,58.78
2019-03-11T05:53:17.666Z,58.92
2019-03-11T05:55:49.885Z,58.59
2019-03-11T05:58:20.768Z,58.56
2019-03-11T06:00:52.118Z,58.52
2019-03-11T06:03:22.437Z,58.63
2019-03-11T06:05:55.680Z,58.83
2019-03-11T06:08:26.567Z,59.04
2019-03-11T06:10:57.499Z,58.85
2019-03-11T06:13:35.914Z,58.80
2019-03-11T06:16:02.847Z,58.69
2019-03-11T06:18:37.688Z,58.49
2019-03-11T06:21:26.955Z,58.33
2019-03-11T06:23:58.202Z,58.22
2019-03-11T06:26:28.825Z,58.17
2019-03-11T06:28:59.350Z,58.38
2019-03-11T06:31:29.984Z,58.10
2019-03-11T06:34:03.481Z,58.24
2019-03-11T06:36:36.279Z,57.71
2019-03-11T06:39:07.623Z,57.54
2019-03-11T06:41:39.560Z,56.63
2019-03-11T06:44:10.107Z,56.38
2019-03-11T06:46:42.066Z,56.06
2019-03-11T06:49:14.224Z,55.79
2019-03-11T06:51:45.775Z,55.41
2019-03-11T06:54:17.024Z,54.72
2019-03-11T06:56:47.670Z,54.71
2019-03-11T06:59:18.894Z,54.08
2019-03-11T07:01:49.527Z,53.77
2019-03-11T07:04:20.565Z,52.68
2019-03-11T07:06:51.190Z,53.27
2019-03-11T07:09:21.843Z,53.47
2019-03-11T07:11:52.659Z,53.05
2019-03-11T07:14:22.779Z,52.91
2019-03-11T07:16:53.206Z,52.08
2019-03-11T07:19:23.754Z,51.71
2019-03-11T07:21:54.361Z,51.13
2019-03-11T07:24:26.303Z,51.96
2019-03-11T07:27:00.444Z,51.95
2019-03-11T07:29:31.678Z,52.90
2019-03-11T07:32:02.620Z,52.99
2019-03-11T07:34:32.834Z,53.11
2019-03-11T07:37:05.880Z,53.53
2019-03-11T07:39:36.449Z,53.78
2019-03-11T07:42:07.286Z,53.83
2019-03-11T07:44:37.886Z,54.11
2019-03-11T07:47:08.544Z,54.13
2019-03-11T07:49:39.687Z,53.96
2019-03-11T07:52:10.328Z,54.25
2019-03-11T07:54:40.942Z,53.98
2019-03-11T07:57:12.395Z,53.98
2019-03-11T07:59:42.735Z,54.25
2019-03-11T08:02:13.350Z,54.67
2019-03-11T08:04:44.112Z,54.34
2019-03-11T08:07:15.229Z,54.61
2019-03-11T08:09:46.163Z,54.22
2019-03-11T08:12:17.203Z,54.20
2019-03-11T08:14:47.528Z,55.19
2019-03-11T08:17:19.488Z,55.60
2019-03-11T08:19:55.304Z,55.90
2019-03-11T08:22:25.879Z,56.30
2019-03-11T08:24:56.919Z,56.81
2019-03-11T08:27:31.304Z,57.42
2019-03-11T08:30:01.504Z,57.10
2019-03-11T08:32:33.312Z,57.33
2019-03-11T08:35:06.072Z,56.81
2019-03-11T08:37:38.859Z,56.70
2019-03-11T08:40:16.866Z,56.89
2019-03-11T08:42:47.080Z,56.27
2019-03-11T08:45:18.563Z,56.35
2019-03-11T08:47:48.851Z,56.57
2019-03-11T08:50:27.487Z,56.69
2019-03-11T08:52:58.206Z,56.30
2019-03-11T08:55:29.104Z,55.96
2019-03-11T08:57:59.877Z,56.74
2019-03-11T09:00:30.409Z,55.55
2019-03-11T09:03:01.443Z,55.57
2019-03-11T09:05:33.331Z,55.60
2019-03-11T09:08:03.734Z,56.90
2019-03-11T09:10:35.793Z,56.84
2019-03-11T09:13:06.391Z,57.55
2019-03-11T09:15:38.188Z,58.11
2019-03-11T09:18:10.118Z,58.31
2019-03-11T09:20:42.299Z,58.86
2019-03-11T09:23:14.576Z,59.34
2019-03-11T09:25:46.435Z,60.91
2019-03-11T09:28:17.199Z,61.51
2019-03-11T09:30:51.175Z,62.54
2019-03-11T09:33:21.527Z,63.11
2019-03-11T09:35:52.032Z,63.24
2019-03-11T09:38:22.658Z,63.37
2019-03-11T09:40:53.306Z,63.75
2019-03-11T09:43:27.069Z,62.76
2019-03-11T09:45:57.517Z,62.90
2019-03-11T09:48:28.868Z,62.74
2019-03-11T09:50:59.612Z,62.53
2019-03-11T09:53:30.081Z,61.95
2019-03-11T09:56:00.758Z,61.37
2019-03-11T09:58:31.586Z,61.47
2019-03-11T10:01:03.432Z,61.54
2019-03-11T10:03:33.775Z,60.95
2019-03-11T10:06:04.805Z,61.65
2019-03-11T10:08:36.457Z,62.01
2019-03-11T10:11:06.989Z,62.28
2019-03-11T10:13:37.622Z,61.75
2019-03-11T10:16:09.125Z,60.94
2019-03-11T10:18:39.522Z,62.04
2019-03-11T10:21:11.046Z,60.92
2019-03-11T10:23:41.387Z,59.80
2019-03-11T10:26:11.997Z,60.55
2019-03-11T10:28:44.550Z,60.31
2019-03-11T10:31:15.625Z,61.48
2019-03-11T10:33:46.158Z,61.24
2019-03-11T10:36:18.318Z,60.74
2019-03-11T10:38:48.838Z,61.31
2019-03-11T10:41:20.592Z,62.14
2019-03-11T10:43:51.323Z,61.74
2019-03-11T10:46:21.862Z,61.80
2019-03-11T10:48:52.918Z,60.48
2019-03-11T10:51:24.279Z,60.29
2019-03-11T10:53:56.199Z,60.53
2019-03-11T10:56:26.316Z,60.21
2019-03-11T10:58:57.767Z,60.13
2019-03-11T11:01:27.986Z,60.55
2019-03-11T11:03:59.227Z,60.77
2019-03-11T11:06:29.694Z,59.99
2019-03-11T11:09:00.205Z,59.23
2019-03-11T11:11:30.716Z,57.71
2019-03-11T11:14:02.382Z,54.31
2019-03-11T11:16:32.849Z,50.49
2019-03-11T11:19:03.521Z,49.90
2019-03-11T11:21:34.464Z,51.64
2019-03-11T11:24:05.300Z,53.65
2019-03-11T11:26:36.039Z,54.52
2019-03-11T11:29:06.981Z,56.63
2019-03-11T11:31:38.320Z,57.35
2019-03-11T11:34:08.706Z,58.01
2019-03-11T11:36:39.159Z,57.82
2019-03-11T11:39:11.329Z,56.37
2019-03-11T11:41:41.825Z,55.22
2019-03-11T11:44:12.905Z,55.33
2019-03-11T11:46:44.759Z,55.83
2019-03-11T11:49:16.076Z,56.22
2019-03-11T11:51:46.673Z,55.26
2019-03-11T11:54:17.157Z,52.82
2019-03-11T11:56:47.989Z,52.45
2019-03-11T11:59:19.339Z,53.95
2019-03-11T12:02:02.980Z,55.89
2019-03-11T12:04:24.604Z,56.93
2019-03-11T12:06:55.226Z,57.45
2019-03-11T12:09:26.672Z,57.93
2019-03-11T12:11:59.808Z,57.55
2019-03-11T12:14:32.332Z,56.73
2019-03-11T12:17:02.724Z,55.73
2019-03-11T12:19:34.221Z,53.97
2019-03-11T12:22:06.878Z,52.44
2019-03-11T12:24:38.656Z,52.50
2019-03-11T12:27:12.449Z,53.07
2019-03-11T12:29:43.087Z,53.51
2019-03-11T12:32:14.098Z,53.77
2019-03-11T12:34:45.057Z,53.11
2019-03-11T12:37:16.493Z,51.53
2019-03-11T12:39:46.841Z,48.68
2019-03-11T12:42:17.359Z,41.20
2019-03-11T12:44:49.535Z,40.69
2019-03-11T12:47:21.751Z,37.54
2019-03-11T12:49:52.525Z,38.26
2019-03-11T12:52:23.767Z,36.72
2019-03-11T12:54:57.476Z,41.92
2019-03-11T12:57:28.109Z,45.09
2019-03-11T12:59:59.237Z,46.98
2019-03-11T13:02:29.536Z,48.45
2019-03-11T13:05:03.789Z,48.55
2019-03-11T13:07:34.407Z,49.29
2019-03-11T13:10:08.551Z,49.87
2019-03-11T13:12:42.858Z,49.99
2019-03-11T13:15:14.590Z,50.23
2019-03-11T13:17:45.840Z,49.09
2019-03-11T13:20:31.789Z,48.75
2019-03-11T13:23:02.364Z,48.33
2019-03-11T13:25:33.920Z,47.63
2019-03-11T13:28:05.359Z,41.63
2019-03-11T13:30:36.439Z,39.48
2019-03-11T13:33:08.375Z,41.44
2019-03-11T13:35:39.101Z,41.68
2019-03-11T13:38:09.725Z,40.37
2019-03-11T13:40:41.723Z,41.56
2019-03-11T13:43:12.934Z,41.63
2019-03-11T13:45:46.218Z,42.17
2019-03-11T13:48:20.558Z,43.72
2019-03-11T13:50:50.761Z,44.22
2019-03-11T13:53:24.698Z,45.28
2019-03-11T13:55:55.905Z,45.34
2019-03-11T13:58:27.075Z,46.14
2019-03-11T14:00:57.577Z,47.56
2019-03-11T14:03:29.213Z,48.25
2019-03-11T14:05:59.452Z,48.14
2019-03-11T14:08:32.524Z,48.74
2019-03-11T14:11:06.815Z,49.14
2019-03-11T14:13:38.407Z,49.36
2019-03-11T14:16:11.206Z,49.70
2019-03-11T14:18:44.610Z,49.81
2019-03-11T14:21:25.346Z,50.36
2019-03-11T14:23:50.042Z,50.00
2019-03-11T14:26:20.674Z,48.99
2019-03-11T14:28:51.793Z,44.10
2019-03-11T14:31:23.884Z,40.57
2019-03-11T14:33:54.224Z,38.16
2019-03-11T14:36:25.751Z,42.81
2019-03-11T14:38:57.205Z,48.30
2019-03-11T14:41:29.510Z,50.81
2019-03-11T14:44:01.861Z,52.07
2019-03-11T14:46:33.868Z,52.90
2019-03-11T14:49:05.106Z,53.96
2019-03-11T14:51:35.991Z,54.10
2019-03-11T14:54:08.274Z,54.03
2019-03-11T14:56:39.413Z,52.95
2019-03-11T14:59:12.890Z,52.84
2019-03-11T15:01:44.343Z,52.38
2019-03-11T15:04:16.206Z,51.66
2019-03-11T15:06:51.457Z,51.56
2019-03-11T15:09:26.083Z,51.88
2019-03-11T15:11:58.443Z,52.41
2019-03-11T15:14:33.728Z,52.18
2019-03-11T15:17:04.755Z,51.33
2019-03-11T15:19:36.180Z,49.48
2019-03-11T15:22:08.033Z,48.91
2019-03-11T15:24:39.778Z,48.75
2019-03-11T15:27:10.561Z,47.12
2019-03-11T15:29:42.380Z,46.89
2019-03-11T15:32:14.243Z,47.08
2019-03-11T15:34:47.217Z,47.41
2019-03-11T15:37:18.255Z,46.90
2019-03-11T15:39:50.401Z,46.85
2019-03-11T15:42:20.941Z,46.24
2019-03-11T15:44:53.317Z,46.57
2019-03-11T15:47:25.173Z,46.90
2019-03-11T15:49:55.866Z,46.66
2019-03-11T15:52:27.272Z,46.42
2019-03-11T15:54:58.706Z,46.63
2019-03-11T15:57:38.749Z,46.91
2019-03-11T16:00:01.502Z,46.93
2019-03-11T16:02:32.234Z,46.98
2019-03-11T16:05:03.371Z,47.30
2019-03-11T16:07:33.919Z,47.56
2019-03-11T16:10:16.401Z,47.59
2019-03-11T16:12:39.060Z,47.85
2019-03-11T16:15:11.077Z,47.99
2019-03-11T16:17:41.436Z,48.07
2019-03-11T16:20:20.363Z,48.08
2019-03-11T16:22:50.490Z,48.37
2019-03-11T16:25:21.118Z,48.12
2019-03-11T16:27:51.635Z,48.37
2019-03-11T16:30:25.851Z,48.39
2019-03-11T16:32:59.960Z,48.74
2019-03-11T16:35:28.960Z,49.06
2019-03-11T16:37:59.279Z,49.08
2019-03-11T16:40:29.702Z,49.36
2019-03-11T16:43:01.067Z,49.58
2019-03-11T16:45:33.725Z,49.59
2019-03-11T16:48:04.461Z,49.64
2019-03-11T16:50:35.205Z,50.15
2019-03-11T16:53:05.823Z,49.91
2019-03-11T16:55:53.046Z,49.87
2019-03-11T16:58:23.467Z,49.64
2019-03-11T17:00:55.572Z,49.83
2019-03-11T17:03:26.259Z,49.78
2019-03-11T17:05:56.889Z,49.89
2019-03-11T17:08:29.777Z,50.02
2019-03-11T17:11:00.406Z,50.06
2019-03-11T17:13:31.759Z,50.25
2019-03-11T17:16:02.813Z,50.22
2019-03-11T17:18:34.346Z,50.19
2019-03-11T17:21:05.690Z,50.52
2019-03-11T17:23:35.914Z,49.99
2019-03-11T17:26:06.434Z,49.80
2019-03-11T17:28:37.183Z,50.07
2019-03-11T17:31:07.747Z,50.02
2019-03-11T17:33:42.837Z,49.79
2019-03-11T17:36:13.358Z,49.73
2019-03-11T17:38:45.423Z,49.93
2019-03-11T17:41:16.976Z,49.62
2019-03-11T17:43:47.404Z,49.59
2019-03-11T17:46:18.864Z,49.91
2019-03-11T17:48:49.081Z,50.43
2019-03-11T17:51:19.599Z,50.35
2019-03-11T17:53:51.967Z,50.47
2019-03-11T17:56:22.195Z,50.84
2019-03-11T17:58:52.830Z,50.91
2019-03-11T18:01:23.241Z,51.02
2019-03-11T18:03:54.641Z,51.12
2019-03-11T18:06:26.449Z,50.98
2019-03-11T18:08:56.990Z,50.82
2019-03-11T18:11:27.611Z,50.81
2019-03-11T18:13:57.828Z,51.14
2019-03-11T18:16:28.356Z,51.09
2019-03-11T18:19:00.319Z,51.29
2019-03-11T18:21:30.661Z,51.11
2019-03-11T18:24:01.169Z,51.20
2019-03-11T18:26:31.708Z,51.43
2019-03-11T18:29:02.137Z,51.35
2019-03-11T18:31:32.852Z,51.07
2019-03-11T18:34:04.302Z,50.80
2019-03-11T18:36:35.141Z,51.04
2019-03-11T18:39:07.271Z,51.34
2019-03-11T18:41:38.752Z,51.74
2019-03-11T18:44:10.407Z,51.85
2019-03-11T18:46:44.001Z,51.68
2019-03-11T18:49:15.084Z,51.80
2019-03-11T18:51:45.393Z,52.24
2019-03-11T18:54:16.000Z,51.66
2019-03-11T18:56:47.168Z,51.79
2019-03-11T18:59:18.801Z,51.78
2019-03-11T19:01:51.228Z,52.15
2019-03-11T19:04:21.518Z,52.34
2019-03-11T19:06:52.141Z,52.40
2019-03-11T19:09:22.578Z,52.33
2019-03-11T19:11:53.687Z,52.17
2019-03-11T19:14:24.215Z,51.96
2019-03-11T19:16:54.743Z,52.08
2019-03-11T19:19:26.632Z,52.17
2019-03-11T19:21:56.790Z,51.96
2019-03-11T19:24:27.571Z,52.30
2019-03-11T19:26:58.299Z,52.43
2019-03-11T19:29:30.154Z,52.64
2019-03-11T19:32:00.290Z,52.66
2019-03-11T19:34:31.007Z,52.70
2019-03-11T19:37:01.532Z,52.47
2019-03-11T19:42:03.118Z,52.84
2019-03-11T19:44:33.330Z,52.88
2019-03-11T19:47:04.349Z,53.16
2019-03-11T19:49:35.798Z,53.31
2019-03-11T19:52:06.446Z,53.33
2019-03-11T19:54:37.164Z,53.19
2019-03-11T19:57:08.865Z,53.05
2019-03-11T19:59:39.577Z,53.01
2019-03-11T20:02:11.952Z,52.57
2019-03-11T20:04:42.494Z,52.60
2019-03-11T20:07:13.055Z,52.55
2019-03-11T20:09:43.760Z,52.64
2019-03-11T20:12:15.190Z,51.87
2019-03-11T20:14:46.862Z,52.23
2019-03-11T20:17:17.949Z,52.02
2019-03-11T20:19:48.801Z,51.89
2019-03-11T20:22:21.341Z,51.40
2019-03-11T20:24:51.796Z,51.68
2019-03-11T20:27:22.933Z,51.45
2019-03-11T20:29:54.414Z,51.72
2019-03-11T20:32:24.500Z,51.30
2019-03-11T20:34:55.290Z,52.11
2019-03-11T20:37:25.761Z,52.06
2019-03-11T20:39:58.418Z,51.39
2019-03-11T20:42:30.126Z,51.09
2019-03-11T20:45:00.393Z,51.50
2019-03-11T20:47:30.989Z,51.37
2019-03-11T20:50:01.548Z,51.32
2019-03-11T20:52:31.983Z,51.59
2019-03-11T20:55:03.762Z,50.88
2019-03-11T20:57:34.270Z,51.34
2019-03-11T21:00:07.676Z,50.94
2019-03-11T21:02:38.905Z,50.74
2019-03-11T21:05:11.490Z,51.08
2019-03-11T21:07:42.143Z,51.09
2019-03-11T21:10:14.509Z,51.29
2019-03-11T21:12:44.816Z,51.49
2019-03-11T21:15:16.174Z,51.74
2019-03-11T21:17:49.035Z,52.16
2019-03-11T21:20:19.278Z,52.26
2019-03-11T21:22:50.866Z,52.73
2019-03-11T21:25:23.421Z,52.79
2019-03-11T21:27:54.217Z,53.30
2019-03-11T21:30:28.793Z,52.13
2019-03-11T21:32:59.082Z,52.27
2019-03-11T21:35:29.701Z,52.40
2019-03-11T21:38:01.705Z,52.15
2019-03-11T21:40:31.886Z,52.44
2019-03-11T21:43:02.663Z,52.65
2019-03-11T21:45:34.803Z,52.80
2019-03-11T21:48:05.414Z,53.11
2019-03-11T21:50:37.168Z,53.11
2019-03-11T21:53:07.489Z,52.95
2019-03-11T21:55:38.552Z,52.84
2019-03-11T21:58:13.379Z,53.15
2019-03-11T22:00:43.208Z,53.10
2019-03-11T22:03:13.390Z,52.85
2019-03-11T22:05:44.659Z,52.88
2019-03-11T22:08:14.963Z,53.49
2019-03-11T22:10:45.998Z,53.75
2019-03-11T22:13:16.215Z,53.80
2019-03-11T22:15:46.746Z,53.96
2019-03-11T22:18:17.268Z,53.77
2019-03-11T22:20:48.790Z,54.10
2019-03-11T22:23:19.456Z,54.59
2019-03-11T22:25:50.286Z,54.85
2019-03-11T22:28:20.919Z,54.99
2019-03-11T22:30:51.448Z,54.83
2019-03-11T22:33:22.078Z,54.87
2019-03-11T22:35:52.706Z,54.92
2019-03-11T22:38:23.230Z,55.42
2019-03-11T22:40:55.197Z,55.86
2019-03-11T22:43:25.721Z,55.55
2019-03-11T22:45:56.571Z,55.23
2019-03-11T22:48:28.721Z,54.59
2019-03-11T22:50:59.969Z,54.57
2019-03-11T22:53:30.601Z,55.02
2019-03-11T22:56:01.432Z,55.25
2019-03-11T22:58:31.964Z,55.43
2019-03-11T23:01:04.348Z,55.68
2019-03-11T23:03:34.449Z,56.03
2019-03-11T23:06:05.082Z,56.07
2019-03-11T23:08:35.579Z,56.10
2019-03-11T23:11:06.325Z,56.32
2019-03-11T23:13:36.813Z,56.45
2019-03-11T23:16:10.293Z,56.56
2019-03-11T23:18:40.483Z,56.28
2019-03-11T23:21:11.110Z,56.46
2019-03-11T23:23:41.549Z,56.57
2019-03-11T23:26:12.472Z,56.83
2019-03-11T23:28:43.410Z,57.32
2019-03-11T23:31:14.164Z,57.60
2019-03-11T23:33:44.967Z,57.61
2019-03-11T23:36:16.329Z,57.91
2019-03-11T23:38:47.467Z,57.79
2019-03-11T23:41:17.691Z,57.47
2019-03-11T23:43:49.034Z,57.43
2019-03-11T23:46:20.993Z,57.82
2019-03-11T23:48:51.523Z,57.64
2019-03-11T23:51:22.802Z,57.62
2019-03-11T23:53:52.889Z,57.59
2019-03-11T23:56:23.406Z,57.86
2019-03-11T23:58:55.359Z,58.12
